createdAt,value
2019-05-11T00:00:55.175Z,48.20
2019-05-11T00:03:58.922Z,48.10
2019-05-11T00:07:02.694Z,48.00
2019-05-11T00:10:06.517Z,48.50
2019-05-11T00:13:10.272Z,48.60
2019-05-11T00:16:14.007Z,48.70
2019-05-11T00:19:17.662Z,48.80
2019-05-11T00:22:21.788Z,48.90
2019-05-11T00:25:28.494Z,49.60
2019-05-11T00:28:32.250Z,49.80
2019-05-11T00:31:35.928Z,50.00
2019-05-11T00:34:39.569Z,50.10
2019-05-11T00:37:43.307Z,50.50
2019-05-11T00:40:47.190Z,50.90
2019-05-11T00:43:50.877Z,51.20
2019-05-11T00:46:54.587Z,52.10
2019-05-11T00:49:58.550Z,51.90
2019-05-11T00:53:02.254Z,52.20
2019-05-11T00:56:06.286Z,52.00
2019-05-11T00:59:21.434Z,51.80
2019-05-11T01:02:15.625Z,51.90
2019-05-11T01:05:19.378Z,51.90
2019-05-11T01:08:23.202Z,51.70
2019-05-11T01:11:27.080Z,51.40
2019-05-11T01:14:30.942Z,51.30
2019-05-11T01:17:34.601Z,51.20
2019-05-11T01:20:38.562Z,51.10
2019-05-11T01:23:42.367Z,51.00
2019-05-11T01:26:46.022Z,51.30
2019-05-11T01:29:49.722Z,51.30
2019-05-11T01:32:53.398Z,51.70
2019-05-11T01:35:57.533Z,52.30
2019-05-11T01:39:01.253Z,52.70
2019-05-11T01:42:05.038Z,53.10
2019-05-11T01:45:08.801Z,53.80
2019-05-11T01:48:12.470Z,53.10
2019-05-11T01:51:16.454Z,53.20
2019-05-11T01:54:20.159Z,53.70
2019-05-11T01:57:23.808Z,54.60
2019-05-11T02:00:27.515Z,55.10
2019-05-11T02:03:31.222Z,55.40
2019-05-11T02:06:34.922Z,55.50
2019-05-11T02:09:39.034Z,56.70
2019-05-11T02:12:42.702Z,57.20
2019-05-11T02:15:46.385Z,57.40
2019-05-11T02:18:50.087Z,57.50
2019-05-11T02:21:53.954Z,57.70
2019-05-11T02:24:57.634Z,58.10
2019-05-11T02:28:01.329Z,58.20
2019-05-11T02:31:05.252Z,59.00
2019-05-11T02:34:08.944Z,58.60
2019-05-11T02:37:12.873Z,59.30
2019-05-11T02:40:17.897Z,59.30
2019-05-11T02:43:21.908Z,59.20
2019-05-11T02:46:25.695Z,60.00
2019-05-11T02:49:29.618Z,60.00
2019-05-11T02:52:34.706Z,60.00
2019-05-11T02:55:39.115Z,60.10
2019-05-11T02:58:44.060Z,61.30
2019-05-11T03:01:47.909Z,60.90
2019-05-11T03:04:51.602Z,60.90
2019-05-11T03:07:55.255Z,60.70
2019-05-11T03:10:59.175Z,60.90
2019-05-11T03:14:02.918Z,60.80
2019-05-11T03:17:31.967Z,60.80
2019-05-11T03:20:35.850Z,61.00
2019-05-11T03:23:39.591Z,61.00
2019-05-11T03:26:43.273Z,61.00
2019-05-11T03:29:46.986Z,60.80
2019-05-11T03:32:51.642Z,60.60
2019-05-11T03:35:55.463Z,60.70
2019-05-11T03:38:59.179Z,60.20
2019-05-11T03:42:13.982Z,60.00
2019-05-11T03:45:08.592Z,60.10
2019-05-11T03:48:12.652Z,60.00
2019-05-11T03:51:16.476Z,59.70
2019-05-11T03:54:20.251Z,59.50
2019-05-11T03:57:24.150Z,59.00
2019-05-11T04:00:28.213Z,59.10
2019-05-11T04:03:31.946Z,59.30
2019-05-11T04:06:35.638Z,59.20
2019-05-11T04:09:39.409Z,59.00
2019-05-11T04:12:43.203Z,58.70
2019-05-11T04:15:47.209Z,57.40
2019-05-11T04:18:50.924Z,57.50
2019-05-11T04:21:54.601Z,57.10
2019-05-11T04:24:58.290Z,57.40
2019-05-11T04:28:01.985Z,56.70
2019-05-11T04:31:05.665Z,56.30
2019-05-11T04:34:09.314Z,56.00
2019-05-11T04:37:13.020Z,55.80
2019-05-11T04:40:16.947Z,54.80
2019-05-11T04:43:20.670Z,55.10
2019-05-11T04:46:24.594Z,54.90
2019-05-11T04:49:28.264Z,54.10
2019-05-11T04:52:31.993Z,53.50
2019-05-11T04:55:35.750Z,53.50
2019-05-11T04:58:39.670Z,53.50
2019-05-11T05:01:43.367Z,53.50
2019-05-11T05:04:47.075Z,53.60
2019-05-11T05:07:51.231Z,53.70
2019-05-11T05:10:58.436Z,53.70
2019-05-11T05:14:02.199Z,53.00
2019-05-11T05:17:06.574Z,52.90
2019-05-11T05:20:10.699Z,51.80
2019-05-11T05:23:14.385Z,52.00
2019-05-11T05:26:18.082Z,50.90
2019-05-11T05:29:21.752Z,50.60
2019-05-11T05:32:25.462Z,51.40
2019-05-11T05:35:29.478Z,50.60
2019-05-11T05:38:33.139Z,49.80
2019-05-11T05:41:36.837Z,46.80
2019-05-11T05:44:40.510Z,45.90
2019-05-11T05:47:44.458Z,44.00
2019-05-11T05:50:48.130Z,44.60
2019-05-11T05:53:51.805Z,43.00
2019-05-11T05:56:55.547Z,43.20
2019-05-11T05:59:59.332Z,43.30
2019-05-11T06:03:03.011Z,42.90
2019-05-11T06:06:12.997Z,43.10
2019-05-11T06:09:16.804Z,42.50
2019-05-11T06:12:20.595Z,41.40
2019-05-11T06:15:24.325Z,40.40
2019-05-11T06:18:27.986Z,40.20
2019-05-11T06:21:33.123Z,38.00
2019-05-11T06:24:36.858Z,36.40
2019-05-11T06:27:40.544Z,34.60
2019-05-11T06:30:44.297Z,33.00
2019-05-11T06:33:48.021Z,33.00
2019-05-11T06:36:51.898Z,31.60
2019-05-11T06:39:55.682Z,32.00
2019-05-11T06:42:59.419Z,29.80
2019-05-11T06:46:03.097Z,28.20
2019-05-11T06:49:07.299Z,27.60
2019-05-11T06:52:11.050Z,26.10
2019-05-11T06:55:14.849Z,25.60
2019-05-11T06:58:19.039Z,26.30
2019-05-11T07:01:22.746Z,24.70
2019-05-11T07:04:26.442Z,24.60
2019-05-11T07:07:45.293Z,24.60
2019-05-11T07:10:35.702Z,25.10
2019-05-11T07:13:39.532Z,24.80
2019-05-11T07:16:43.506Z,25.60
2019-05-11T07:19:47.769Z,26.30
2019-05-11T07:22:51.841Z,25.40
2019-05-11T07:25:55.527Z,25.10
2019-05-11T07:28:59.170Z,25.40
2019-05-11T07:32:12.172Z,25.60
2019-05-11T07:35:08.732Z,24.70
2019-05-11T07:38:12.449Z,24.20
2019-05-11T07:41:17.634Z,24.30
2019-05-11T07:44:34.924Z,25.00
2019-05-11T07:47:27.837Z,25.20
2019-05-11T07:50:31.698Z,25.80
2019-05-11T07:53:35.371Z,24.30
2019-05-11T07:56:39.269Z,24.90
2019-05-11T07:59:43.101Z,25.30
2019-05-11T08:02:48.040Z,23.80
2019-05-11T08:05:52.101Z,24.90
2019-05-11T08:08:55.765Z,24.30
2019-05-11T08:11:59.495Z,23.90
2019-05-11T08:15:11.668Z,23.80
2019-05-11T08:18:08.751Z,23.80
2019-05-11T08:21:12.445Z,24.10
2019-05-11T08:24:18.022Z,23.90
2019-05-11T08:27:22.529Z,23.60
2019-05-11T08:30:28.124Z,22.70
2019-05-11T08:33:31.826Z,22.70
2019-05-11T08:36:37.688Z,22.40
2019-05-11T08:39:41.022Z,22.10
2019-05-11T08:42:44.698Z,22.10
2019-05-11T08:45:48.620Z,22.50
2019-05-11T08:48:52.475Z,22.40
2019-05-11T08:51:57.832Z,22.90
2019-05-11T08:55:01.877Z,22.70
2019-05-11T08:58:07.744Z,23.30
2019-05-11T09:01:10.990Z,22.60
2019-05-11T09:04:14.645Z,22.20
2019-05-11T09:07:18.557Z,20.50
2019-05-11T09:10:22.535Z,20.60
2019-05-11T09:13:27.935Z,20.30
2019-05-11T09:16:32.594Z,19.80
2019-05-11T09:19:38.630Z,20.50
2019-05-11T09:22:41.706Z,20.30
2019-05-11T09:25:47.593Z,20.60
2019-05-11T09:28:50.997Z,20.00
2019-05-11T09:31:54.682Z,20.80
2019-05-11T09:34:58.337Z,19.30
2019-05-11T09:38:02.118Z,20.30
2019-05-11T09:41:08.970Z,19.50
2019-05-11T09:44:12.571Z,18.70
2019-05-11T09:47:18.791Z,18.80
2019-05-11T09:50:22.159Z,19.30
2019-05-11T09:53:28.164Z,19.30
2019-05-11T09:56:31.284Z,18.30
2019-05-11T09:59:35.221Z,18.80
2019-05-11T10:02:39.282Z,19.40
2019-05-11T10:05:42.974Z,19.70
2019-05-11T10:08:48.670Z,19.30
2019-05-11T10:11:52.599Z,20.00
2019-05-11T10:14:56.279Z,19.80
2019-05-11T10:17:59.981Z,20.30
2019-05-11T10:21:03.714Z,20.10
2019-05-11T10:24:08.471Z,20.80
2019-05-11T10:27:12.428Z,20.50
2019-05-11T10:30:18.614Z,21.20
2019-05-11T10:33:22.799Z,20.50
2019-05-11T10:36:27.974Z,20.20
2019-05-11T10:39:31.962Z,20.20
2019-05-11T10:42:37.763Z,20.70
2019-05-11T10:45:41.129Z,20.30
2019-05-11T10:48:45.244Z,20.40
2019-05-11T10:51:49.262Z,20.00
2019-05-11T10:54:52.910Z,19.90
2019-05-11T10:57:58.114Z,19.70
2019-05-11T11:01:01.985Z,20.30
2019-05-11T11:04:07.771Z,19.90
2019-05-11T11:07:11.322Z,20.10
2019-05-11T11:10:15.116Z,20.20
2019-05-11T11:13:19.077Z,19.70
2019-05-11T11:16:35.807Z,19.70
2019-05-11T11:19:29.118Z,19.80
2019-05-11T11:22:40.373Z,20.20
2019-05-11T11:25:39.149Z,19.90
2019-05-11T11:28:42.794Z,19.00
2019-05-11T11:31:48.206Z,19.90
2019-05-11T11:34:52.262Z,20.10
2019-05-11T11:37:58.315Z,19.90
2019-05-11T11:41:01.665Z,19.80
2019-05-11T11:44:07.658Z,19.80
2019-05-11T11:47:10.929Z,20.20
2019-05-11T11:50:17.813Z,19.80
2019-05-11T11:53:21.337Z,20.30
2019-05-11T11:56:25.066Z,20.90
2019-05-11T11:59:29.094Z,20.20
2019-05-11T12:02:33.109Z,20.50
2019-05-11T12:05:38.597Z,21.10
2019-05-11T12:08:42.571Z,20.80
2019-05-11T12:11:48.414Z,20.60
2019-05-11T12:14:51.713Z,21.00
2019-05-11T12:17:55.434Z,21.10
2019-05-11T12:20:59.111Z,21.40
2019-05-11T12:24:02.984Z,21.30
2019-05-11T12:27:07.680Z,22.70
2019-05-11T12:30:11.752Z,22.70
2019-05-11T12:33:15.470Z,23.60
2019-05-11T12:36:19.164Z,24.40
2019-05-11T12:39:22.862Z,24.90
2019-05-11T12:42:28.374Z,24.80
2019-05-11T12:45:32.292Z,25.50
2019-05-11T12:48:37.933Z,26.70
2019-05-11T12:51:41.410Z,26.60
2019-05-11T12:54:47.747Z,26.00
2019-05-11T12:57:51.019Z,26.60
2019-05-11T13:00:54.671Z,27.00
2019-05-11T13:03:58.386Z,27.00
2019-05-11T13:07:02.088Z,27.40
2019-05-11T13:10:08.177Z,28.80
2019-05-11T13:13:11.393Z,29.00
2019-05-11T13:16:15.078Z,28.10
2019-05-11T13:19:18.752Z,27.70
2019-05-11T13:22:22.521Z,27.80
2019-05-11T13:25:28.118Z,27.50
2019-05-11T13:28:31.964Z,27.00
2019-05-11T13:31:35.601Z,26.90
2019-05-11T13:34:39.336Z,27.40
2019-05-11T13:37:43.035Z,29.00
2019-05-11T13:40:48.819Z,28.00
2019-05-11T13:43:52.210Z,28.90
2019-05-11T13:46:55.969Z,28.10
2019-05-11T13:50:00.411Z,27.00
2019-05-11T13:53:04.152Z,27.00
2019-05-11T13:56:08.256Z,27.70
2019-05-11T13:59:13.035Z,28.20
2019-05-11T14:02:18.047Z,27.40
2019-05-11T14:05:22.221Z,28.10
2019-05-11T14:08:27.764Z,26.90
2019-05-11T14:11:31.650Z,28.60
2019-05-11T14:14:37.592Z,27.70
2019-05-11T14:17:40.946Z,28.60
2019-05-11T14:20:45.557Z,28.60
2019-05-11T14:23:50.061Z,28.90
2019-05-11T14:26:53.922Z,30.00
2019-05-11T14:29:58.000Z,29.10
2019-05-11T14:33:01.763Z,30.80
2019-05-11T14:36:05.449Z,30.00
2019-05-11T14:39:09.130Z,29.90
2019-05-11T14:42:13.293Z,30.10
2019-05-11T14:45:18.703Z,32.40
2019-05-11T14:48:26.867Z,35.20
2019-05-11T14:51:28.291Z,33.20
2019-05-11T14:54:32.162Z,32.30
2019-05-11T14:57:35.833Z,33.60
2019-05-11T15:00:39.758Z,32.70
2019-05-11T15:03:43.423Z,33.20
2019-05-11T15:06:48.974Z,33.20
2019-05-11T15:09:52.928Z,34.20
2019-05-11T15:12:58.925Z,34.40
2019-05-11T15:16:02.282Z,34.80
2019-05-11T15:19:07.978Z,34.80
2019-05-11T15:22:11.411Z,34.30
2019-05-11T15:25:18.885Z,33.80
2019-05-11T15:28:22.229Z,34.10
2019-05-11T15:31:27.725Z,34.20
2019-05-11T15:34:31.340Z,34.20
2019-05-11T15:37:35.101Z,34.90
2019-05-11T15:40:38.795Z,35.10
2019-05-11T15:43:42.506Z,36.10
2019-05-11T15:46:47.987Z,36.00
2019-05-11T15:49:52.051Z,36.30
2019-05-11T15:52:58.106Z,37.30
2019-05-11T15:56:01.458Z,37.40
2019-05-11T15:59:05.157Z,36.60
2019-05-11T16:02:08.820Z,36.60
2019-05-11T16:05:12.671Z,36.40
2019-05-11T16:08:18.630Z,37.10
2019-05-11T16:11:22.222Z,37.90
2019-05-11T16:14:27.986Z,38.10
2019-05-11T16:17:31.581Z,38.10
2019-05-11T16:20:35.322Z,38.10
2019-05-11T16:23:39.160Z,38.70
2019-05-11T16:26:43.077Z,39.00
2019-05-11T16:29:47.911Z,41.30
2019-05-11T16:32:51.697Z,41.30
2019-05-11T16:35:57.998Z,40.90
2019-05-11T16:39:00.962Z,41.80
2019-05-11T16:42:04.818Z,42.70
2019-05-11T16:45:09.662Z,42.60
2019-05-11T16:48:13.439Z,42.90
2019-05-11T16:51:17.730Z,43.50
2019-05-11T16:54:21.547Z,46.70
2019-05-11T16:57:25.292Z,47.30
2019-05-11T17:00:29.346Z,48.00
2019-05-11T17:03:33.234Z,50.00
2019-05-11T17:06:39.083Z,47.60
2019-05-11T17:09:42.534Z,47.40
2019-05-11T17:12:48.429Z,47.30
2019-05-11T17:15:51.702Z,43.90
2019-05-11T17:18:55.394Z,44.10
2019-05-11T17:21:59.341Z,44.40
2019-05-11T17:25:03.059Z,44.50
2019-05-11T17:28:09.671Z,44.20
2019-05-11T17:31:12.346Z,43.70
2019-05-11T17:34:20.503Z,43.00
2019-05-11T17:37:21.917Z,42.40
2019-05-11T17:40:28.333Z,42.70
2019-05-11T17:43:31.332Z,42.60
2019-05-11T17:46:38.204Z,41.80
2019-05-11T17:49:56.368Z,40.50
2019-05-11T17:52:48.049Z,38.60
2019-05-11T17:55:52.143Z,37.50
2019-05-11T17:58:55.950Z,37.20
2019-05-11T18:01:59.994Z,37.10
2019-05-11T18:05:03.856Z,37.20
2019-05-11T18:08:08.712Z,37.20
2019-05-11T18:11:12.638Z,37.00
2019-05-11T18:14:28.007Z,37.10
2019-05-11T18:17:31.433Z,36.50
2019-05-11T18:20:37.905Z,36.90
2019-05-11T18:23:40.870Z,36.90
2019-05-11T18:26:44.574Z,36.90
2019-05-11T18:29:48.657Z,37.00
2019-05-11T18:32:52.842Z,37.60
2019-05-11T18:35:58.616Z,38.50
2019-05-11T18:39:02.197Z,39.10
2019-05-11T18:42:08.187Z,39.20
2019-05-11T18:45:11.589Z,39.20
2019-05-11T18:48:15.277Z,39.60
2019-05-11T18:51:18.946Z,39.20
2019-05-11T18:54:22.758Z,39.30
2019-05-11T18:57:27.833Z,39.30
2019-05-11T19:00:31.883Z,39.20
2019-05-11T19:03:35.642Z,39.10
2019-05-11T19:06:39.369Z,38.30
2019-05-11T19:09:43.026Z,38.50
2019-05-11T19:12:48.846Z,38.20
2019-05-11T19:15:52.262Z,38.60
2019-05-11T19:18:58.476Z,38.60
2019-05-11T19:22:01.368Z,39.00
2019-05-11T19:25:05.386Z,39.00
2019-05-11T19:28:09.125Z,39.00
2019-05-11T19:31:13.162Z,38.80
2019-05-11T19:34:17.682Z,39.10
2019-05-11T19:37:22.524Z,38.90
2019-05-11T19:40:27.566Z,37.80
2019-05-11T19:43:31.303Z,37.80
2019-05-11T19:46:38.585Z,38.40
2019-05-11T19:49:41.317Z,37.70
2019-05-11T19:52:44.987Z,38.30
2019-05-11T19:55:48.808Z,38.00
2019-05-11T19:58:52.726Z,38.30
2019-05-11T20:01:59.780Z,38.20
2019-05-11T20:05:02.152Z,38.00
2019-05-11T20:08:07.899Z,38.30
2019-05-11T20:11:11.542Z,38.00
2019-05-11T20:14:15.214Z,37.80
2019-05-11T20:17:18.926Z,37.00
2019-05-11T20:20:22.722Z,36.20
2019-05-11T20:23:26.430Z,34.00
2019-05-11T20:26:30.074Z,34.20
2019-05-11T20:29:33.774Z,33.10
2019-05-11T20:32:38.862Z,32.80
2019-05-11T20:35:42.737Z,32.60
2019-05-11T20:38:47.650Z,32.20
2019-05-11T20:41:51.446Z,33.30
2019-05-11T20:44:55.342Z,32.10
2019-05-11T20:47:59.066Z,31.20
2019-05-11T20:51:02.945Z,30.60
2019-05-11T20:54:08.854Z,29.40
2019-05-11T20:57:12.503Z,28.20
2019-05-11T21:00:18.693Z,26.80
2019-05-11T21:03:22.538Z,27.30
2019-05-11T21:06:28.978Z,26.20
2019-05-11T21:09:31.666Z,24.90
2019-05-11T21:12:35.375Z,22.60
2019-05-11T21:15:39.174Z,22.30
2019-05-11T21:18:42.896Z,22.60
2019-05-11T21:21:52.800Z,22.40
2019-05-11T21:24:51.961Z,22.60
2019-05-11T21:27:57.765Z,22.70
2019-05-11T21:31:01.121Z,22.60
2019-05-11T21:34:04.805Z,22.60
2019-05-11T21:37:08.590Z,22.50
2019-05-11T21:40:12.922Z,21.70
2019-05-11T21:43:16.618Z,21.40
2019-05-11T21:46:20.302Z,21.00
2019-05-11T21:49:24.092Z,21.50
2019-05-11T21:52:28.721Z,21.40
2019-05-11T21:55:32.577Z,20.60
2019-05-11T21:58:37.834Z,20.20
2019-05-11T22:01:41.645Z,20.10
2019-05-11T22:04:47.861Z,20.70
2019-05-11T22:07:50.925Z,20.20
2019-05-11T22:10:54.622Z,20.40
2019-05-11T22:13:58.525Z,20.20
2019-05-11T22:17:02.653Z,20.90
2019-05-11T22:20:07.659Z,21.10
2019-05-11T22:23:11.481Z,21.30
2019-05-11T22:26:15.196Z,21.40
2019-05-11T22:29:18.838Z,22.40
2019-05-11T22:32:22.775Z,22.10
2019-05-11T22:35:28.430Z,22.40
2019-05-11T22:38:32.313Z,22.40
2019-05-11T22:41:39.354Z,22.50
2019-05-11T22:44:41.455Z,22.30
2019-05-11T22:47:45.166Z,22.60
2019-05-11T22:50:50.654Z,23.40
2019-05-11T22:53:54.549Z,23.40
2019-05-11T22:56:58.706Z,23.70
2019-05-11T23:00:02.558Z,24.10
2019-05-11T23:03:07.674Z,23.90
2019-05-11T23:06:11.734Z,24.50
2019-05-11T23:09:15.418Z,24.30
2019-05-11T23:12:19.432Z,24.70
2019-05-11T23:15:23.298Z,25.30
2019-05-11T23:18:28.567Z,25.10
2019-05-11T23:21:32.824Z,25.50
2019-05-11T23:24:36.761Z,25.50
2019-05-11T23:27:40.438Z,25.10
2019-05-11T23:30:44.150Z,25.20
2019-05-11T23:33:47.889Z,25.50
2019-05-11T23:36:51.610Z,25.90
2019-05-11T23:39:55.250Z,25.90
2019-05-11T23:42:58.949Z,26.10
2019-05-11T23:46:02.613Z,26.10
2019-05-11T23:49:08.610Z,26.10
2019-05-11T23:52:12.189Z,26.10
2019-05-11T23:55:18.684Z,26.60
2019-05-11T23:58:22.058Z,26.30
